Time;durP1;ratioP1;P1;durP2;ratioP2;P2;SDS_P1;SDS_P2;PMS_P1;PMS_P2;Temp;Humidity;BMP_temperature;BMP_pressure;BME280_temperature;BME280_humidity;BME280_pressure;Samples;Min_cycle;Max_cycle;Signal;HPM_P1;HPM_P2
2022/06/13 00:00:32;;;;;;;7.77;6.97;;;;;;;20.28;74.47;100224.25;1807901;78;21514;-68
2022/06/13 00:03:00;;;;;;;9.77;8.20;;;;;;;20.28;74.00;100228.89;1785552;80;21129;-67
2022/06/13 00:05:28;;;;;;;8.40;7.60;;;;;;;20.28;73.53;100216.69;1775762;78;21050;-68
2022/06/13 00:07:55;;;;;;;8.50;7.20;;;;;;;20.28;73.15;100221.55;1791198;78;21081;-68
2022/06/13 00:10:22;;;;;;;8.10;7.40;;;;;;;20.28;72.89;100216.69;1792124;79;21058;-70
2022/06/13 00:12:50;;;;;;;8.00;6.60;;;;;;;20.27;72.73;100216.44;1814501;78;22601;-68
2022/06/13 00:15:18;;;;;;;7.90;7.13;;;;;;;20.26;72.62;100214.29;1799258;78;22140;-68
2022/06/13 00:17:46;;;;;;;9.23;7.57;;;;;;;20.24;72.32;100215.20;1800408;78;21042;-68
2022/06/13 00:20:13;;;;;;;7.80;7.10;;;;;;;20.23;72.12;100216.87;1780824;80;21030;-68
2022/06/13 00:22:39;;;;;;;8.00;7.20;;;;;;;20.29;71.72;100214.98;1807594;78;21616;-67
2022/06/13 00:25:08;;;;;;;7.57;6.53;;;;;;;20.21;71.48;100221.28;1790805;78;21130;-67
2022/06/13 00:27:35;;;;;;;7.17;6.47;;;;;;;20.22;70.99;100218.80;1793085;79;21266;-67
2022/06/13 00:30:07;;;;;;;7.37;6.67;;;;;;;20.24;70.40;100223.91;1781081;80;21066;-69
2022/06/13 00:32:34;;;;;;;8.23;6.57;;;;;;;20.21;70.09;100218.57;1812886;78;21030;-69
2022/06/13 00:35:02;;;;;;;7.10;6.40;;;;;;;20.22;69.89;100216.65;1801818;78;21739;-69
2022/06/13 00:37:29;;;;;;;7.63;6.70;;;;;;;20.21;69.51;100214.50;1794706;78;21085;-68
2022/06/13 00:39:56;;;;;;;7.67;6.90;;;;;;;20.21;69.31;100213.14;1781262;78;21093;-69
2022/06/13 00:42:24;;;;;;;9.23;6.67;;;;;;;20.19;69.09;100209.95;1806009;78;21073;-68
2022/06/13 00:45:18;;;;;;;7.27;6.57;;;;;;;20.17;68.81;100208.16;1794844;78;21014;-68
2022/06/13 00:47:48;;;;;;;7.23;6.10;;;;;;;20.18;68.56;100201.60;1790296;79;21129;-68
2022/06/13 00:50:34;;;;;;;7.17;6.47;;;;;;;20.17;68.21;100210.05;1792022;78;21148;-68
2022/06/13 00:53:11;;;;;;;6.97;6.30;;;;;;;20.14;68.06;100205.53;1782467;79;22218;-68
2022/06/13 00:56:08;;;;;;;7.00;6.27;;;;;;;20.12;67.98;100210.48;1800703;78;21045;-68
2022/06/13 00:58:41;;;;;;;7.93;6.37;;;;;;;20.11;67.77;100208.11;1784068;79;21077;-68
2022/06/13 01:01:08;;;;;;;6.87;6.03;;;;;;;20.08;67.49;100211.48;1796229;78;21546;-69
2022/06/13 01:03:35;;;;;;;6.73;6.03;;;;;;;20.08;67.25;100215.55;1797271;78;21180;-68
2022/06/13 01:06:04;;;;;;;6.40;5.80;;;;;;;20.06;67.04;100212.36;1810775;78;21122;-68
2022/06/13 01:08:35;;;;;;;7.43;5.97;;;;;;;20.06;66.86;100215.07;1785253;79;21113;-67
2022/06/13 01:11:18;;;;;;;6.70;6.10;;;;;;;20.04;66.70;100214.06;1801593;78;21023;-67
2022/06/13 01:14:18;;;;;;;6.00;5.40;;;;;;;20.04;66.49;100218.66;1813170;78;21014;-68
2022/06/13 01:17:05;;;;;;;6.50;5.90;;;;;;;20.03;66.38;100214.37;1817841;78;21985;-68
2022/06/13 01:20:08;;;;;;;6.80;5.77;;;;;;;20.00;66.36;100214.45;1802173;78;21143;-68
2022/06/13 01:22:54;;;;;;;5.87;5.37;;;;;;;19.99;66.43;100213.45;1783686;78;21047;-69
2022/06/13 01:25:39;;;;;;;6.07;5.37;;;;;;;19.97;66.68;100212.97;1792637;79;21053;-69
2022/06/13 01:28:37;;;;;;;5.57;5.07;;;;;;;19.94;66.63;100223.11;1794629;78;21604;-68
2022/06/13 01:31:27;;;;;;;6.43;5.83;;;;;;;19.90;66.61;100226.47;1795446;79;21018;-68
2022/06/13 01:34:12;;;;;;;7.37;5.87;;;;;;;19.84;66.50;100232.41;1794593;79;21250;-68
2022/06/13 01:36:59;;;;;;;6.13;5.53;;;;;;;19.84;66.50;100232.41;1794808;79;21560;-68
2022/06/13 01:40:07;;;;;;;6.23;5.63;;;;;;;19.80;66.34;100229.56;1794612;79;21022;-67
2022/06/13 01:43:08;;;;;;;7.73;5.37;;;;;;;19.76;66.27;100221.06;1793082;79;21069;-68
2022/06/13 01:45:45;;;;;;;6.00;5.40;;;;;;;19.72;66.21;100227.70;1753063;79;21022;-68
2022/06/13 01:48:34;;;;;;;6.07;5.47;;;;;;;19.70;66.19;100227.78;1788203;78;21142;-68
2022/06/13 01:51:22;;;;;;;6.97;5.77;;;;;;;19.67;66.29;100225.95;1779391;79;21077;-67
2022/06/13 01:54:20;;;;;;;5.97;5.43;;;;;;;19.66;66.44;100225.73;1787814;79;20992;-68
2022/06/13 01:57:16;;;;;;;6.03;5.07;;;;;;;19.65;66.72;100226.86;1793581;78;20986;-68
2022/06/13 02:00:10;;;;;;;6.47;5.77;;;;;;;19.64;67.09;100227.98;1792963;79;21156;-69
2022/06/13 02:02:51;;;;;;;6.73;5.63;;;;;;;19.64;67.57;100227.16;1787104;79;21162;-68
2022/06/13 02:05:23;;;;;;;6.80;6.10;;;;;;;19.63;67.98;100226.91;1792121;78;21104;-67
2022/06/13 02:08:04;;;;;;;7.77;6.13;;;;;;;19.62;68.13;100229.39;1792586;79;21035;-67
2022/06/13 02:10:36;;;;;;;6.80;6.10;;;;;;;19.61;68.34;100225.08;1795630;79;21366;-67
2022/06/13 02:13:14;;;;;;;6.58;5.90;;;;;;;19.60;68.63;100219.43;1794623;78;26772;-68
2022/06/13 02:15:44;;;;;;;6.67;5.80;;;;;;;19.60;68.88;100220.78;1792534;79;21102;-68
2022/06/13 02:18:23;;;;;;;6.85;5.67;;;;;;;19.61;69.11;100227.25;1794425;79;22481;-67
2022/06/13 02:20:53;;;;;;;7.03;6.33;;;;;;;19.62;69.21;100228.04;1812999;78;21426;-68
2022/06/13 02:23:25;;;;;;;7.17;5.60;;;;;;;19.63;69.13;100235.04;1792181;78;21058;-68
2022/06/13 02:26:03;;;;;;;11.37;6.50;;;;;;;19.63;69.07;100235.86;1811787;77;21383;-68
2022/06/13 02:28:50;;;;;;;7.30;6.20;;;;;;;19.65;69.08;100232.84;1797148;79;21225;-68
2022/06/13 02:31:37;;;;;;;6.73;6.10;;;;;;;19.66;69.08;100230.36;1813735;77;21022;-67
2022/06/13 02:34:09;;;;;;;7.93;6.20;;;;;;;19.68;69.14;100229.48;1784651;78;21074;-68
2022/06/13 02:36:49;;;;;;;6.37;5.77;;;;;;;19.72;69.15;100231.77;1818846;78;20963;-68
2022/06/13 02:39:30;;;;;;;8.43;6.10;;;;;;;19.74;69.14;100232.22;1815808;77;21097;-69
2022/06/13 02:42:18;;;;;;;6.87;5.85;;;;;;;19.78;69.23;100233.17;1817169;78;20980;-67
2022/06/13 02:45:02;;;;;;;7.10;6.10;;;;;;;19.82;69.21;100229.25;1814977;77;21026;-68
2022/06/13 02:47:59;;;;;;;7.30;5.97;;;;;;;19.86;69.16;100226.90;1817488;78;21022;-67
2022/06/13 02:50:53;;;;;;;6.90;5.87;;;;;;;19.92;69.08;100231.58;1814798;77;20991;-67
2022/06/13 02:53:43;;;;;;;6.37;5.60;;;;;;;19.95;68.76;100227.43;1817308;77;20935;-68
2022/06/13 02:56:36;;;;;;;10.03;6.10;;;;;;;19.99;68.71;100226.44;1776466;78;21294;-68
2022/06/13 02:59:20;;;;;;;6.50;5.83;;;;;;;20.02;68.58;100220.36;1817228;78;21407;-68
2022/06/13 03:01:47;;;;;;;7.90;6.37;;;;;;;20.06;68.46;100224.56;1815022;77;20979;-67
2022/06/13 03:04:37;;;;;;;6.57;5.77;;;;;;;20.11;68.33;100232.52;1814241;78;21030;-68
2022/06/13 03:07:25;;;;;;;6.40;5.37;;;;;;;20.14;68.42;100227.80;1814202;78;21120;-67
2022/06/13 03:10:14;;;;;;;6.97;5.90;;;;;;;20.22;68.38;100227.49;1811386;78;21088;-67
2022/06/13 03:13:01;;;;;;;6.03;5.43;;;;;;;20.26;68.09;100227.84;1812264;77;21536;-67
2022/06/13 03:15:57;;;;;;;7.20;5.73;;;;;;;20.33;67.95;100232.75;1817717;78;20978;-67
2022/06/13 03:18:27;;;;;;;6.97;5.77;;;;;;;20.37;67.83;100229.06;1817943;78;21047;-67
2022/06/13 03:20:59;;;;;;;6.27;5.67;;;;;;;20.44;67.75;100233.17;1814182;77;21046;-68
2022/06/13 03:23:31;;;;;;;6.33;5.70;;;;;;;20.50;67.87;100235.89;1814174;78;21638;-68
2022/06/13 03:26:09;;;;;;;7.90;6.13;;;;;;;20.54;67.57;100234.16;1813707;78;20963;-68
2022/06/13 03:28:44;;;;;;;7.37;5.73;;;;;;;20.59;67.16;100242.08;1817298;78;21138;-68
2022/06/13 03:31:18;;;;;;;7.90;6.23;;;;;;;20.64;66.70;100237.03;1815969;77;21038;-68
2022/06/13 03:33:49;;;;;;;6.53;5.30;;;;;;;20.69;66.32;100237.59;1811840;77;21034;-68
2022/06/13 03:36:42;;;;;;;7.12;6.10;;;;;;;20.76;66.29;100241.13;1816916;78;21179;-68
2022/06/13 03:39:29;;;;;;;8.20;5.80;;;;;;;20.83;65.90;100234.63;1818726;78;20908;-68
2022/06/13 03:42:04;;;;;;;6.70;6.10;;;;;;;20.89;65.48;100237.34;1809423;77;21047;-68
2022/06/13 03:44:35;;;;;;;6.87;6.23;;;;;;;20.96;65.36;100235.44;1792261;78;21522;-68
2022/06/13 03:47:29;;;;;;;6.05;5.25;;;;;;;21.02;64.64;100237.61;1817693;78;21383;-68
2022/06/13 03:50:18;;;;;;;6.63;5.87;;;;;;;21.08;64.32;100240.91;1815478;77;21130;-68
2022/06/13 03:52:50;;;;;;;8.23;5.90;;;;;;;21.14;64.15;100240.94;1811157;77;21110;-68
2022/06/13 03:55:41;;;;;;;;;;;;;;;21.22;64.32;100250.93;1815899;77;21580;-70
2022/06/13 03:58:19;;;;;;;9.30;6.10;;;;;;;21.30;64.47;100251.95;1776266;79;20212;-68
2022/06/13 04:00:58;;;;;;;6.07;5.30;;;;;;;21.40;63.91;100256.20;1818964;77;21014;-68
2022/06/13 04:03:24;;;;;;;6.07;5.10;;;;;;;21.48;63.54;100260.16;1792522;78;22073;-69
2022/06/13 04:06:00;;;;;;;6.17;5.33;;;;;;;21.53;62.57;100257.80;1797345;79;21049;-68
2022/06/13 04:08:28;;;;;;;5.33;4.83;;;;;;;21.58;62.13;100259.48;1784340;79;21102;-68
2022/06/13 04:11:18;;;;;;;5.90;5.17;;;;;;;21.63;61.49;100256.56;1816008;78;21019;-68
2022/06/13 04:13:55;;;;;;;5.40;4.90;;;;;;;21.66;61.04;100266.20;1797708;79;21045;-68
2022/06/13 04:17:00;;;;;;;5.93;5.20;;;;;;;21.72;60.96;100262.12;1757939;79;21226;-68
2022/06/13 04:19:35;;;;;;;7.03;5.50;;;;;;;21.76;60.51;100258.95;1796416;78;21077;-68
2022/06/13 04:22:19;;;;;;;5.80;5.20;;;;;;;21.84;60.30;100264.61;1792105;79;21066;-69
2022/06/13 04:25:00;;;;;;;6.53;5.27;;;;;;;21.88;60.34;100263.61;1797719;78;21058;-68
2022/06/13 04:27:53;;;;;;;5.90;5.37;;;;;;;21.95;60.12;100254.31;1794694;79;21021;-68
2022/06/13 04:30:24;;;;;;;6.83;5.67;;;;;;;22.02;59.87;100256.45;1817344;78;21539;-69
2022/06/13 04:33:22;;;;;;;5.67;5.07;;;;;;;22.10;59.58;100262.91;1797934;79;21647;-69
2022/06/13 04:35:48;;;;;;;6.50;5.10;;;;;;;22.17;59.59;100268.02;1797939;79;21640;-68
2022/06/13 04:38:17;;;;;;;5.83;4.80;;;;;;;22.28;59.34;100262.09;1796280;79;21496;-68
2022/06/13 04:40:48;;;;;;;6.30;5.50;;;;;;;22.36;59.26;100259.27;1783944;79;21030;-68
2022/06/13 04:43:16;;;;;;;6.33;5.20;;;;;;;22.43;59.23;100259.47;1782051;79;21214;-68
2022/06/13 04:45:53;;;;;;;5.70;5.10;;;;;;;22.50;59.04;100265.69;1794943;78;21442;-67
2022/06/13 04:48:21;;;;;;;8.67;5.10;;;;;;;22.58;59.14;100266.12;1784331;79;21015;-68
2022/06/13 04:50:50;;;;;;;7.03;5.03;;;;;;;22.64;58.88;100259.31;1775288;80;21041;-68
2022/06/13 04:53:22;;;;;;;5.87;5.00;;;;;;;22.71;58.77;100261.44;1795710;79;21042;-68
2022/06/13 04:55:51;;;;;;;6.70;5.10;;;;;;;22.76;58.48;100255.73;1790594;78;21242;-68
2022/06/13 04:58:34;;;;;;;5.63;4.80;;;;;;;22.84;58.10;100263.55;1794887;79;21034;-68
2022/06/13 05:01:05;;;;;;;5.53;4.77;;;;;;;22.92;57.98;100265.32;1795202;79;21018;-68
2022/06/13 05:03:38;;;;;;;5.55;4.75;;;;;;;23.00;57.30;100272.59;1792668;79;21003;-68
2022/06/13 05:06:06;;;;;;;6.40;4.30;;;;;;;23.08;57.21;100269.48;1780334;79;20994;-68
2022/06/13 05:08:36;;;;;;;6.13;4.63;;;;;;;23.20;56.37;100272.70;1795260;79;21119;-69
2022/06/13 05:11:17;;;;;;;6.43;5.03;;;;;;;23.26;56.14;100278.91;1793570;79;21029;-68
2022/06/13 05:13:46;;;;;;;5.00;4.10;;;;;;;23.34;56.01;100282.62;1792742;78;21034;-68
2022/06/13 05:16:25;;;;;;;5.90;4.77;;;;;;;23.45;55.85;100279.59;1790226;79;20952;-68
2022/06/13 05:19:07;;;;;;;4.60;4.20;;;;;;;23.53;55.24;100282.73;1794279;79;21065;-68
2022/06/13 05:21:52;;;;;;;5.33;4.50;;;;;;;23.62;54.63;100288.78;1700985;79;21362;-69
2022/06/13 05:24:36;;;;;;;5.03;4.50;;;;;;;23.70;54.43;100289.81;1664686;79;10000941;-71
2022/06/13 05:27:06;;;;;;;4.70;4.17;;;;;;;23.78;53.96;100288.03;1773621;79;20984;-68
2022/06/13 05:29:33;;;;;;;5.60;4.57;;;;;;;23.84;53.60;100287.42;1755779;79;21900;-70
2022/06/13 05:32:00;;;;;;;5.03;4.30;;;;;;;23.90;53.09;100286.59;1776565;79;21389;-69
2022/06/13 05:34:31;;;;;;;6.17;4.43;;;;;;;23.96;53.16;100290.63;1779379;79;21142;-69
2022/06/13 05:36:58;;;;;;;5.30;4.33;;;;;;;24.02;53.25;100285.13;1779115;79;21118;-70
2022/06/13 05:39:25;;;;;;;4.90;4.50;;;;;;;24.12;53.26;100289.25;1753319;78;21563;-71
2022/06/13 05:41:52;;;;;;;5.23;3.87;;;;;;;24.22;52.51;100287.87;1778718;79;21763;-70
2022/06/13 05:44:19;;;;;;;4.23;3.70;;;;;;;24.28;52.32;100288.64;1776697;79;21013;-71
2022/06/13 05:46:46;;;;;;;5.70;4.40;;;;;;;24.36;51.29;100285.48;1768518;78;21021;-71
2022/06/13 05:49:13;;;;;;;4.40;4.00;;;;;;;24.40;51.50;100282.26;1762953;79;21000;-70
2022/06/13 05:51:41;;;;;;;5.87;4.37;;;;;;;24.50;51.53;100283.09;1801137;77;21107;-71
2022/06/13 05:54:11;;;;;;;5.27;3.87;;;;;;;24.61;51.11;100285.25;1779118;79;21113;-77
2022/06/13 05:56:38;;;;;;;5.60;4.00;;;;;;;24.68;50.91;100284.03;1789245;78;21020;-76
2022/06/13 05:59:07;;;;;;;4.93;3.97;;;;;;;24.76;50.48;100285.77;1797066;79;21041;-79
2022/06/13 06:01:36;;;;;;;5.07;3.77;;;;;;;24.84;50.38;100275.77;1794278;79;21058;-81
2022/06/13 06:04:04;;;;;;;5.50;4.30;;;;;;;24.92;50.74;100276.92;1766929;79;21041;-74
2022/06/13 06:06:33;;;;;;;4.80;3.40;;;;;;;25.03;50.28;100286.10;1789271;79;21962;-75
2022/06/13 06:09:00;;;;;;;4.20;3.80;;;;;;;24.84;49.84;100275.19;1796392;79;20991;-73
2022/06/13 06:11:30;;;;;;;3.93;3.50;;;;;;;24.64;50.09;100275.77;1790132;79;21054;-74
2022/06/13 06:13:59;;;;;;;4.93;4.27;;;;;;;24.97;49.53;100273.88;1794756;79;21058;-75
2022/06/13 06:16:27;;;;;;;5.40;4.33;;;;;;;24.79;50.11;100273.55;1796349;79;21473;-74
2022/06/13 06:18:55;;;;;;;4.50;3.77;;;;;;;24.82;49.71;100273.98;1796957;79;20939;-76
2022/06/13 06:21:23;;;;;;;4.00;3.60;;;;;;;24.85;50.01;100280.89;1795268;79;21105;-74
2022/06/13 06:23:49;;;;;;;3.50;3.17;;;;;;;25.16;48.49;100272.31;1794651;79;21097;-75
2022/06/13 06:26:20;;;;;;;6.30;3.60;;;;;;;25.38;47.42;100270.77;1794598;79;21595;-75
2022/06/13 06:28:47;;;;;;;;;;;;;;;25.37;47.58;100269.98;1797662;78;21046;-75
2022/06/13 06:31:13;;;;;;;6.00;3.30;;;;;;;25.41;47.50;100270.04;1777126;79;21229;-79
2022/06/13 06:33:40;;;;;;;5.47;3.60;;;;;;;25.26;48.01;100266.25;1797187;79;21090;-75
2022/06/13 06:36:14;;;;;;;4.77;4.07;;;;;;;25.46;47.81;100265.03;1796880;79;20954;-73
2022/06/13 06:38:41;;;;;;;4.43;3.77;;;;;;;25.46;47.22;100263.67;1797187;78;21078;-74
2022/06/13 06:41:08;;;;;;;4.87;3.70;;;;;;;25.29;48.09;100266.89;1795689;79;20986;-75
2022/06/13 06:43:35;;;;;;;7.67;4.90;;;;;;;25.28;48.10;100265.32;1795190;79;21239;-75
2022/06/13 06:46:02;;;;;;;6.77;4.30;;;;;;;25.30;48.19;100269.05;1796551;79;21019;-74
2022/06/13 06:48:29;;;;;;;6.20;4.40;;;;;;;25.37;48.29;100269.16;1797156;79;21023;-77
2022/06/13 06:50:56;;;;;;;5.17;4.27;;;;;;;25.48;48.20;100264.11;1796828;79;21023;-75
2022/06/13 06:53:25;;;;;;;4.73;4.00;;;;;;;26.01;47.09;100258.52;1794952;79;21081;-76
2022/06/13 07:01:22;;;;;;;3.87;3.47;;;;;;;25.99;46.16;100262.97;1794867;79;21276;-75
2022/06/13 07:03:49;;;;;;;4.43;3.90;;;;;;;25.91;46.35;100259.93;1795102;79;21106;-76
2022/06/13 07:06:16;;;;;;;5.97;3.93;;;;;;;25.85;46.15;100266.28;1795039;79;21062;-74
2022/06/13 07:08:43;;;;;;;4.97;4.10;;;;;;;25.79;46.22;100260.09;1796016;79;21735;-76
2022/06/13 07:14:10;;;;;;;4.87;3.80;;;;;;;25.82;45.27;100271.13;1795383;79;21018;-75
2022/06/13 07:16:38;;;;;;;8.20;3.50;;;;;;;25.71;45.32;100265.45;1794606;78;21041;-75
2022/06/13 07:19:05;;;;;;;5.00;3.20;;;;;;;25.65;45.54;100263.40;1794874;79;21046;-73
2022/06/13 07:21:32;;;;;;;5.73;3.60;;;;;;;25.61;45.20;100263.34;1791790;79;21156;-75
2022/06/13 07:23:59;;;;;;;5.33;3.90;;;;;;;25.63;45.09;100261.05;1765609;79;21046;-75
2022/06/13 07:26:25;;;;;;;3.93;3.53;;;;;;;25.71;44.67;100261.94;1795564;79;21054;-77
2022/06/13 07:28:53;;;;;;;4.13;3.00;;;;;;;25.81;44.48;100263.30;1794745;79;20994;-76
2022/06/13 07:31:24;;;;;;;4.43;3.30;;;;;;;25.90;42.66;100259.73;1794963;79;21062;-73
2022/06/13 07:33:51;;;;;;;4.10;3.45;;;;;;;26.46;40.97;100259.53;1792757;78;21647;-76
2022/06/13 07:36:18;;;;;;;4.10;3.00;;;;;;;26.52;40.86;100261.59;1794979;79;21086;-73
2022/06/13 07:38:44;;;;;;;5.53;3.50;;;;;;;26.56;40.84;100261.64;1795272;79;21125;-73
2022/06/13 07:41:16;;;;;;;4.80;3.40;;;;;;;26.50;41.48;100257.06;1794721;78;22196;-72
2022/06/13 07:43:43;;;;;;;4.60;3.17;;;;;;;26.43;42.01;100256.95;1795831;79;20955;-77
2022/06/13 07:46:11;;;;;;;6.07;3.50;;;;;;;26.55;41.71;100254.56;1791718;79;21140;-73
2022/06/13 07:48:37;;;;;;;4.57;3.30;;;;;;;26.63;40.77;100262.50;1795454;79;21062;-73
2022/06/13 07:51:07;;;;;;;3.70;3.10;;;;;;;26.71;40.72;100260.63;1794512;79;21018;-74
2022/06/13 07:53:35;;;;;;;5.53;3.37;;;;;;;26.82;40.59;100257.45;1795267;79;21077;-74
2022/06/13 07:56:03;;;;;;;4.67;3.27;;;;;;;26.91;40.16;100250.28;1795039;79;21100;-72
2022/06/13 07:58:34;;;;;;;6.17;3.77;;;;;;;27.06;40.55;100260.83;1796173;79;21659;-74
2022/06/13 08:01:01;;;;;;;4.00;3.40;;;;;;;27.10;40.04;100258.91;1794302;79;21057;-72
2022/06/13 08:03:31;;;;;;;4.10;3.70;;;;;;;27.10;40.38;100253.42;1794894;79;21082;-73
2022/06/13 08:05:58;;;;;;;5.00;4.03;;;;;;;27.09;39.68;100258.13;1794663;79;21015;-73
2022/06/13 08:08:25;;;;;;;5.33;3.67;;;;;;;27.15;40.16;100254.50;1796096;79;21101;-72
2022/06/13 08:10:52;;;;;;;4.20;3.67;;;;;;;27.33;39.46;100249.17;1787980;79;21843;-71
2022/06/13 08:13:20;;;;;;;4.10;3.50;;;;;;;27.53;39.42;100246.98;1794779;79;21565;-73
2022/06/13 08:15:47;;;;;;;5.03;3.80;;;;;;;27.71;39.53;100243.02;1796703;79;21038;-73
2022/06/13 08:18:14;;;;;;;4.90;3.43;;;;;;;27.91;39.55;100246.33;1793268;79;21530;-73
2022/06/13 08:20:42;;;;;;;5.03;3.77;;;;;;;28.01;39.03;100238.74;1795591;79;21183;-72
2022/06/13 08:23:10;;;;;;;11.30;5.40;;;;;;;28.01;38.97;100238.16;1796063;79;21258;-73
2022/06/13 08:25:38;;;;;;;6.00;3.70;;;;;;;28.03;39.17;100236.39;1763011;79;21521;-72
2022/06/13 08:28:06;;;;;;;4.70;3.60;;;;;;;28.12;38.92;100242.33;1762707;80;21148;-73
2022/06/13 08:30:44;;;;;;;3.87;3.23;;;;;;;28.15;38.74;100238.03;1762433;81;20964;-73
2022/06/13 08:33:11;;;;;;;3.23;2.90;;;;;;;28.19;39.02;100235.49;1775709;79;20947;-74
2022/06/13 08:35:39;;;;;;;4.27;3.40;;;;;;;28.42;37.39;100235.83;1796891;79;21151;-74
2022/06/13 08:38:11;;;;;;;3.97;3.07;;;;;;;28.50;36.83;100231.95;1796739;79;21113;-77
2022/06/13 08:40:58;;;;;;;8.80;3.70;;;;;;;28.46;36.61;100234.69;1796366;78;21027;-72
2022/06/13 08:44:07;;;;;;;3.10;2.77;;;;;;;28.37;37.08;100230.11;1797091;79;21015;-73
2022/06/13 08:47:06;;;;;;;6.17;3.50;;;;;;;28.31;37.80;100230.86;1796990;79;21101;-73
2022/06/13 08:50:03;;;;;;;4.30;3.17;;;;;;;28.24;36.62;100229.65;1794768;79;21125;-71
2022/06/13 08:52:39;;;;;;;3.80;3.40;;;;;;;28.10;36.83;100230.14;1794396;79;21633;-70
2022/06/13 08:55:26;;;;;;;4.97;3.63;;;;;;;27.92;37.44;100236.92;1796586;79;21140;-72
2022/06/13 08:58:07;;;;;;;4.13;3.73;;;;;;;27.88;38.25;100234.73;1797067;79;21082;-73
2022/06/13 09:00:35;;;;;;;;;;;;;;;27.76;38.59;100237.98;1765512;79;21030;-72
2022/06/13 09:03:14;;;;;;;4.90;3.30;;;;;;;27.59;39.01;100237.24;1795470;79;21630;-72
2022/06/13 09:05:57;;;;;;;6.10;3.40;;;;;;;27.47;39.35;100242.42;1795011;79;21431;-73
2022/06/13 09:08:45;;;;;;;4.97;3.43;;;;;;;27.07;40.40;100237.73;1796880;79;21015;-71
2022/06/13 09:11:37;;;;;;;3.53;3.23;;;;;;;27.09;40.77;100232.67;1767440;78;21247;-71
2022/06/13 09:14:27;;;;;;;6.20;3.63;;;;;;;26.88;40.74;100234.03;1734999;81;20991;-72
2022/06/13 09:17:05;;;;;;;5.00;3.33;;;;;;;27.00;40.45;100230.81;1765837;81;21354;-71
2022/06/13 09:19:41;;;;;;;4.90;3.00;;;;;;;26.97;40.70;100231.56;1790338;79;21085;-72
2022/06/13 09:22:42;;;;;;;5.20;3.30;;;;;;;27.13;40.04;100227.44;1792727;79;21510;-72
2022/06/13 09:25:39;;;;;;;3.80;3.05;;;;;;;27.10;40.05;100227.38;1762907;79;21037;-73
2022/06/13 09:28:17;;;;;;;3.53;3.00;;;;;;;27.13;40.86;100228.03;1795741;79;21018;-72
2022/06/13 09:30:55;;;;;;;5.20;2.80;;;;;;;27.24;40.29;100227.53;1778244;79;21742;-72
2022/06/13 09:33:32;;;;;;;5.87;2.83;;;;;;;27.30;40.10;100220.54;1794876;79;21560;-73
2022/06/13 09:36:05;;;;;;;3.73;2.77;;;;;;;27.70;39.66;100217.52;1797176;79;20962;-73
2022/06/13 09:38:39;;;;;;;4.00;2.60;;;;;;;27.95;38.69;100214.97;1797578;79;21487;-73
2022/06/13 09:41:45;;;;;;;3.47;2.40;;;;;;;28.28;37.45;100216.72;1796881;79;21090;-72
2022/06/13 09:44:41;;;;;;;3.40;2.37;;;;;;;28.62;37.16;100213.72;1794303;79;21629;-72
2022/06/13 09:47:48;;;;;;;4.17;2.60;;;;;;;29.01;36.00;100215.03;1792507;79;21018;-72
2022/06/13 09:50:43;;;;;;;3.63;2.77;;;;;;;29.12;34.84;100219.38;1795949;79;21706;-72
2022/06/13 09:53:15;;;;;;;4.03;2.70;;;;;;;29.13;35.31;100220.94;1796236;79;21042;-73
2022/06/13 09:56:05;;;;;;;4.03;2.80;;;;;;;29.17;35.73;100223.10;1795640;79;21073;-73
2022/06/13 09:59:10;;;;;;;3.42;2.60;;;;;;;29.25;35.74;100220.34;1795568;79;21381;-73
2022/06/13 10:01:45;;;;;;;4.03;2.50;;;;;;;29.25;35.42;100216.22;1785090;79;21071;-72
2022/06/13 10:04:35;;;;;;;3.53;2.47;;;;;;;29.11;34.57;100212.28;1780962;79;22262;-74
2022/06/13 10:07:11;;;;;;;3.53;2.90;;;;;;;28.99;35.38;100211.28;1794931;79;20984;-74
2022/06/13 10:10:10;;;;;;;3.07;2.60;;;;;;;29.01;35.36;100213.66;1794580;79;21191;-73
2022/06/13 10:12:59;;;;;;;3.27;2.50;;;;;;;29.02;35.33;100209.13;1794591;79;21625;-72
2022/06/13 10:15:50;;;;;;;3.23;2.40;;;;;;;28.82;34.90;100216.13;1752323;79;21021;-72
2022/06/13 10:18:26;;;;;;;;;;;;;;;28.59;35.49;100213.13;1796921;79;21083;-73
2022/06/13 10:21:02;;;;;;;3.20;2.37;;;;;;;28.49;35.49;100205.64;1792308;79;20140;-74
2022/06/13 10:23:52;;;;;;;3.37;2.17;;;;;;;28.54;35.40;100205.87;1756244;79;22513;-73
2022/06/13 10:26:50;;;;;;;2.80;2.40;;;;;;;28.66;34.77;100202.17;1795470;79;22088;-73
2022/06/13 10:29:44;;;;;;;3.50;2.60;;;;;;;28.79;34.33;100199.05;1795310;79;21532;-72
2022/06/13 10:32:51;;;;;;;5.47;2.47;;;;;;;28.96;33.86;100187.31;1793859;79;21065;-72
2022/06/13 10:36:00;;;;;;;2.53;2.20;;;;;;;29.11;33.72;100187.53;1796740;79;21598;-73
2022/06/13 10:38:50;;;;;;;3.47;2.67;;;;;;;29.18;33.09;100175.75;1765607;81;21107;-73
2022/06/13 10:41:17;;;;;;;3.57;2.63;;;;;;;29.18;34.10;100184.78;1791276;79;21893;-74
2022/06/13 10:43:45;;;;;;;3.77;2.47;;;;;;;29.27;34.98;100178.90;1795575;79;21051;-73
2022/06/13 10:46:13;;;;;;;3.97;2.50;;;;;;;29.38;34.49;100185.77;1795702;79;21002;-73
2022/06/13 10:49:09;;;;;;;5.90;2.50;;;;;;;29.48;34.08;100176.72;1795238;79;21086;-72
2022/06/13 10:51:36;;;;;;;3.20;2.47;;;;;;;29.60;34.02;100172.22;1745380;79;20999;-73
2022/06/13 10:54:09;;;;;;;8.00;3.00;;;;;;;29.71;32.93;100181.04;1797106;79;21552;-73
2022/06/13 10:56:40;;;;;;;3.17;2.50;;;;;;;29.67;32.95;100177.70;1796906;79;21438;-75
2022/06/13 10:59:25;;;;;;;3.20;2.70;;;;;;;29.70;33.55;100180.26;1796819;79;20974;-73
2022/06/13 11:02:00;;;;;;;4.40;2.77;;;;;;;29.82;33.04;100174.94;1796686;79;21113;-73
2022/06/13 11:04:35;;;;;;;2.67;2.10;;;;;;;29.89;33.19;100168.03;1796633;79;21054;-72
2022/06/13 11:07:13;;;;;;;2.93;2.40;;;;;;;29.95;32.89;100163.69;1797162;79;21419;-72
2022/06/13 11:09:46;;;;;;;3.20;2.33;;;;;;;29.91;32.59;100165.08;1778217;79;20939;-74
2022/06/13 11:12:23;;;;;;;3.53;2.30;;;;;;;29.86;32.07;100172.36;1769250;81;20979;-73
2022/06/13 11:23:50;;;;;;;3.50;2.30;;;;;;;29.77;32.47;100171.20;1768110;80;21023;-73
2022/06/13 11:29:03;;;;;;;2.70;2.20;;;;;;;29.86;32.09;100164.69;1786213;76;20916;-71
2022/06/13 11:31:31;;;;;;;3.50;2.27;;;;;;;29.88;31.69;100160.96;1772641;79;20932;-73
2022/06/13 11:34:01;;;;;;;4.78;2.40;;;;;;;29.94;31.90;100160.72;1771087;79;21090;-72
2022/06/13 11:36:28;;;;;;;3.53;2.50;;;;;;;29.93;31.31;100159.16;1766876;79;20912;-72
2022/06/13 11:39:03;;;;;;;3.25;2.30;;;;;;;29.87;31.43;100167.63;1795886;79;21069;-73
2022/06/13 11:41:45;;;;;;;4.05;2.50;;;;;;;29.88;31.82;100164.50;1798022;79;21022;-72
2022/06/13 11:44:20;;;;;;;4.83;2.77;;;;;;;29.99;31.53;100158.95;1791212;79;21162;-73
2022/06/13 11:47:01;;;;;;;2.98;2.40;;;;;;;30.04;31.11;100157.17;1794953;79;21023;-73
2022/06/13 11:49:33;;;;;;;3.98;2.40;;;;;;;29.95;31.39;100154.05;1794608;79;38591;-72
2022/06/13 11:53:35;;;;;;;4.20;2.40;;;;;;;29.79;31.86;100160.59;1796200;79;21081;-72
2022/06/13 11:54:54;;;;;;;4.90;2.40;;;;;;;29.70;31.34;100156.08;1795486;79;21058;-73
2022/06/13 11:57:34;;;;;;;2.97;2.10;;;;;;;29.46;32.23;100151.58;1797889;79;20928;-73
2022/06/13 12:00:12;;;;;;;3.93;2.57;;;;;;;29.30;32.43;100145.70;1794109;79;22109;-73
2022/06/13 12:02:47;;;;;;;3.47;2.50;;;;;;;29.12;32.73;100140.19;1797017;79;21479;-73
2022/06/13 12:05:19;;;;;;;3.27;2.50;;;;;;;28.96;33.03;100138.61;1797931;79;21100;-72
2022/06/13 12:08:21;;;;;;;2.60;2.10;;;;;;;28.87;32.93;100140.17;1795937;79;21065;-73
2022/06/13 12:11:14;;;;;;;3.47;2.50;;;;;;;28.84;33.24;100138.20;1794221;79;21037;-73
2022/06/13 12:13:45;;;;;;;4.73;2.33;;;;;;;28.89;33.43;100130.92;1794177;79;21045;-74
2022/06/13 12:16:32;;;;;;;2.63;2.20;;;;;;;29.06;33.57;100126.07;1794465;79;21002;-74
2022/06/13 12:19:28;;;;;;;3.33;2.30;;;;;;;29.28;32.81;100122.70;1791839;79;21030;-73
2022/06/13 12:22:14;;;;;;;3.83;2.30;;;;;;;29.45;31.65;100119.72;1793621;79;21018;-73
2022/06/13 12:25:06;;;;;;;2.80;2.20;;;;;;;29.52;31.49;100125.23;1793879;79;20983;-74
2022/06/13 12:28:07;;;;;;;3.03;2.30;;;;;;;29.57;30.69;100113.80;1796696;79;22028;-72
2022/06/13 12:30:55;;;;;;;5.13;2.53;;;;;;;29.59;30.88;100114.80;1794331;79;21563;-72
2022/06/13 12:33:59;;;;;;;3.72;2.42;;;;;;;29.53;31.30;100107.53;1795295;79;21499;-72